KTYR - Tyler, Texas, USA
Distance from station: WNW 10mi, 17km
Updated: Fri, 12-Aug-2022 3:53am CDT
Clear
Clear
 Wind from calm
Wind: Calm
Temperature: 79°F , 26°C
Dew Point: 73°F , 23°C
Humidity: 84%
Barometer: 30.02 inHg , 1016.6 hPa
Clouds: Clear
Visibility: 10 miles , 16 km
2022/08/12 08:53 KTYR 120853Z AUTO 00000KT 10SM CLR 26/23 A3002 RMK AO2 SLP157 T02560228 55003
KRFI - Henderson Rusk C, Texas, USA
Distance from station: ESE 25mi, 40km
Updated: Fri, 12-Aug-2022 4:35am CDT
Partly Cloudy
Partly Cloudy
 Wind from calm
Wind: Calm
Temperature: 77°F , 25°C
Dew Point: 68°F , 20°C
Humidity: 74%
Barometer: 30.03 inHg , 1016.9 hPa
Clouds: Partly Cloudy
Visibility: 10 miles , 16 km
Cloud details: Partly Cloudy 11000 ft
2022/08/12 09:35 KRFI 120935Z AUTO 00000KT 10SM SCT110 25/20 A3003 RMK AO2 T02480204
 
KJSO - Jacksonville, Texas, USA
Distance from station: S 30mi, 48km
Updated: Fri, 12-Aug-2022 4:35am CDT
Partly Cloudy
Partly Cloudy
 Wind from calm
Wind: Calm
Temperature: 75°F , 24°C
Dew Point: 72°F , 22°C
Humidity: 89%
Barometer: 30.04 inHg , 1017.3 hPa
Clouds: Partly Cloudy
Visibility: 10 miles , 16 km
Cloud details: Partly Cloudy 10000 ft
Partly Cloudy 12000 ft
2022/08/12 09:35 KJSO 120935Z AUTO 00000KT 10SM SCT100 SCT120 24/22 A3004 RMK AO2 T02360219 TSNO
KGGG - Longview, Texas, USA
Distance from station: ENE 31mi, 50km
Updated: Fri, 12-Aug-2022 3:53am CDT
Clear
Clear
 Wind from calm
Wind: Calm
Temperature: 75°F , 24°C
Dew Point: 73°F , 23°C
Humidity: 94%
Barometer: 30.01 inHg , 1016.3 hPa
Clouds: Clear
Visibility: 10 miles , 16 km
2022/08/12 08:53 KGGG 120853Z AUTO 00000KT 10SM CLR 24/23 A3001 RMK AO2 SLP155 T02390228 55005 TSNO
 
KJXI - Gilmer Muni, Texas, USA
Distance from station: NNE 33mi, 53km
Updated: Fri, 12-Aug-2022 4:35am CDT
Mostly Cloudy
Mostly Cloudy
 Wind from calm
Wind: Calm
Temperature: 75°F , 24°C
Dew Point: 72°F , 22°C
Humidity: 89%
Barometer: 30.03 inHg , 1016.9 hPa
Clouds: Mostly Cloudy
Visibility: 10 miles , 16 km
Cloud details: Mostly Cloudy 3600 ft
2022/08/12 09:35 KJXI 120935Z AUTO 00000KT 10SM BKN036 24/22 A3003 RMK AO2 T02430217
KJDD - Mineola/Quitman, Texas, USA
Distance from station: NNW 35mi, 56km
Updated: Fri, 12-Aug-2022 4:35am CDT

 Wind from calm
Wind: Calm
Temperature: 73°F , 23°C
Dew Point: 72°F , 22°C
Humidity: 94%
Barometer: 30.04 inHg , 1017.3 hPa
2022/08/12 09:35 KJDD 120935Z AUTO 00000KT 23/22 A3004 RMK AO2 PWINO
 
KF44 - Athens, Texas, USA
Distance from station: WSW 36mi, 57km
Updated: Fri, 12-Aug-2022 4:35am CDT
Clear
Clear
 Wind from calm
Wind: Calm
Temperature: 73°F , 23°C
Dew Point: 70°F , 21°C
Humidity: 89%
Barometer: 30.01 inHg , 1016.3 hPa
Clouds: Clear
Visibility: 10 miles , 16 km
2022/08/12 09:35 KF44 120935Z AUTO 00000KT 10SM CLR 23/21 A3001 RMK AO2
KPSN - Palestine Muni, Texas, USA
Distance from station: SW 44mi, 71km
Updated: Fri, 12-Aug-2022 4:35am CDT
Clear
Clear
 Wind from calm
Wind: Calm
Temperature: 73°F , 23°C
Dew Point: 73°F , 23°C
Humidity: 100%
Barometer: 30.00 inHg , 1015.9 hPa
Clouds: Clear
Visibility: 10 miles , 16 km
2022/08/12 09:35 KPSN 120935Z AUTO 00000KT 10SM CLR 23/23 A3000 RMK AO2
 
KASL - Marshall, Texas, USA
Distance from station: ENE 57mi, 92km
Updated: Fri, 12-Aug-2022 4:35am CDT
Clear
Clear
 Wind from calm
Wind: Calm
Temperature: 75°F , 24°C
Dew Point: 72°F , 22°C
Humidity: 89%
Barometer: 30.04 inHg , 1017.3 hPa
Clouds: Clear
Visibility: 10 miles , 16 km
2022/08/12 09:35 KASL 120935Z AUTO 00000KT 10SM CLR 24/22 A3004 RMK AO1 T02350220
KOSA - Mount Pleasant, Texas, USA
Distance from station: NNE 58mi, 93km
Updated: Fri, 12-Aug-2022 4:35am CDT
Overcast
Overcast
 Wind from NE
Wind: NE 3 mph , 6 km/h
Temperature: 77°F , 25°C
Dew Point: 73°F , 23°C
Humidity: 89%
Barometer: 30.04 inHg , 1017.3 hPa
Clouds: Overcast
Visibility: 10 miles , 16 km
Cloud details: Mostly Cloudy 5000 ft
Overcast 10000 ft
2022/08/12 09:35 KOSA 120935Z AUTO 04003KT 10SM BKN050 OVC100 25/23 A3004 RMK AO2 T02520226
 
KOCH - Nacogdoches, Texas, USA
Distance from station: SSE 59mi, 95km
Updated: Fri, 12-Aug-2022 3:56am CDT
Clear
Clear
 Wind from NNW
Wind: NNW 3 mph , 6 km/h
Temperature: 73°F , 23°C
Dew Point: 73°F , 23°C
Humidity: 100%
Barometer: 30.01 inHg , 1016.3 hPa
Clouds: Clear
Visibility: 10 miles , 16 km
2022/08/12 08:56 KOCH 120856Z AUTO 34003KT 10SM CLR 23/23 A3001 RMK AO2 SLP163 T02330233 56006
KSLR - Sulphur Springs, Texas, USA
Distance from station: NNW 64mi, 103km
Updated: Fri, 12-Aug-2022 4:35am CDT
Clear
Clear
 Wind from ENE
Wind: ENE 3 mph , 6 km/h
Temperature: 75°F , 24°C
Dew Point: 72°F , 22°C
Humidity: 89%
Barometer: 30.06 inHg , 1017.9 hPa
Clouds: Clear
Visibility: 10 miles , 16 km
2022/08/12 09:35 KSLR 120935Z AUTO 06003KT 10SM CLR 24/22 A3006 RMK AO2 T02400221
 
KTRL - Terrell, Texas, USA
Distance from station: WNW 66mi, 107km
Updated: Fri, 12-Aug-2022 3:53am CDT
Clear
Clear
 Wind from E
Wind: E 3 mph , 6 km/h
Temperature: 79°F , 26°C
Dew Point: 70°F , 21°C
Humidity: 74%
Barometer: 30.04 inHg , 1017.3 hPa
Clouds: Clear
Visibility: 10 miles , 16 km
2022/08/12 08:53 KTRL 120853Z AUTO 08003KT 10SM CLR 26/21 A3004 RMK AO2 SLP163 T02560211 53000
KCRS - Corsicana, Texas, USA
Distance from station: WSW 70mi, 113km
Updated: Fri, 12-Aug-2022 3:53am CDT
Clear
Clear
 Wind from ENE
Wind: ENE 3 mph , 6 km/h
Temperature: 79°F , 26°C
Dew Point: 72°F , 22°C
Humidity: 79%
Barometer: 30.02 inHg , 1016.6 hPa
Clouds: Clear
Visibility: 10 miles , 16 km
2022/08/12 08:53 KCRS 120853Z AUTO 07003KT 10SM CLR 26/22 A3002 RMK AO2 SLP158 T02560217 58003
 
KGVT - Greenville/Major, Texas, USA
Distance from station: NW 72mi, 115km
Updated: Fri, 12-Aug-2022 4:35am CDT
Clear
Clear
 Wind from calm
Wind: Calm
Temperature: 75°F , 24°C
Dew Point: 72°F , 22°C
Humidity: 89%
Barometer: 30.05 inHg , 1017.6 hPa
Clouds: Clear
Visibility: 10 miles , 16 km
2022/08/12 09:35 KGVT 120935Z AUTO 00000KT 10SM CLR 24/22 A3005 RMK AO2 TSNO T02420219

Metar display script from Saratoga-Weather.org